sensor_id;sensor_type;location;lat;lon;timestamp;temperature;humidity
8633;DHT22;4354;49.832;10.746;2023-09-08T00:02:26;13.70;99.90
8633;DHT22;4354;49.832;10.746;2023-09-08T00:04:54;14.30;99.90
8633;DHT22;4354;49.832;10.746;2023-09-08T00:07:21;13.60;98.60
8633;DHT22;4354;49.832;10.746;2023-09-08T00:09:48;13.90;93.40
8633;DHT22;4354;49.832;10.746;2023-09-08T00:12:15;13.70;89.20
8633;DHT22;4354;49.832;10.746;2023-09-08T00:14:42;13.50;89.50
8633;DHT22;4354;49.832;10.746;2023-09-08T00:17:09;13.60;94.30
8633;DHT22;4354;49.832;10.746;2023-09-08T00:19:36;13.60;95.80
8633;DHT22;4354;49.832;10.746;2023-09-08T00:22:03;13.60;93.50
8633;DHT22;4354;49.832;10.746;2023-09-08T00:24:33;13.60;94.40
8633;DHT22;4354;49.832;10.746;2023-09-08T00:27:00;13.60;90.00
8633;DHT22;4354;49.832;10.746;2023-09-08T00:29:27;13.60;95.00
8633;DHT22;4354;49.832;10.746;2023-09-08T00:31:54;13.60;92.80
8633;DHT22;4354;49.832;10.746;2023-09-08T00:34:21;13.60;90.50
8633;DHT22;4354;49.832;10.746;2023-09-08T00:36:48;13.90;85.30
8633;DHT22;4354;49.832;10.746;2023-09-08T00:39:15;13.60;79.90
8633;DHT22;4354;49.832;10.746;2023-09-08T00:41:42;14.30;90.50
8633;DHT22;4354;49.832;10.746;2023-09-08T00:44:10;13.50;87.80
8633;DHT22;4354;49.832;10.746;2023-09-08T00:46:38;13.80;90.00
8633;DHT22;4354;49.832;10.746;2023-09-08T00:49:06;13.50;93.00
8633;DHT22;4354;49.832;10.746;2023-09-08T00:51:33;13.60;94.40
8633;DHT22;4354;49.832;10.746;2023-09-08T00:54:01;13.50;83.40
8633;DHT22;4354;49.832;10.746;2023-09-08T00:56:29;13.50;90.00
8633;DHT22;4354;49.832;10.746;2023-09-08T00:58:56;13.50;88.10
8633;DHT22;4354;49.832;10.746;2023-09-08T01:01:23;14.00;81.80
8633;DHT22;4354;49.832;10.746;2023-09-08T01:03:50;13.50;82.20
8633;DHT22;4354;49.832;10.746;2023-09-08T01:06:17;13.50;78.20
8633;DHT22;4354;49.832;10.746;2023-09-08T01:08:45;13.90;78.60
8633;DHT22;4354;49.832;10.746;2023-09-08T01:11:12;13.30;84.50
8633;DHT22;4354;49.832;10.746;2023-09-08T01:13:39;13.40;79.00
8633;DHT22;4354;49.832;10.746;2023-09-08T01:16:06;13.40;79.00
8633;DHT22;4354;49.832;10.746;2023-09-08T01:18:33;13.30;80.70
8633;DHT22;4354;49.832;10.746;2023-09-08T01:26:50;13.20;90.10
8633;DHT22;4354;49.832;10.746;2023-09-08T01:29:19;13.20;84.40
8633;DHT22;4354;49.832;10.746;2023-09-08T01:31:46;13.10;91.20
8633;DHT22;4354;49.832;10.746;2023-09-08T01:34:13;13.10;97.30
8633;DHT22;4354;49.832;10.746;2023-09-08T01:36:40;13.20;91.70
8633;DHT22;4354;49.832;10.746;2023-09-08T01:39:07;13.20;93.10
8633;DHT22;4354;49.832;10.746;2023-09-08T01:41:34;12.90;98.80
8633;DHT22;4354;49.832;10.746;2023-09-08T01:44:01;12.80;93.90
8633;DHT22;4354;49.832;10.746;2023-09-08T01:46:31;12.70;97.20
8633;DHT22;4354;49.832;10.746;2023-09-08T01:48:58;12.70;97.40
8633;DHT22;4354;49.832;10.746;2023-09-08T01:51:25;12.60;98.50
8633;DHT22;4354;49.832;10.746;2023-09-08T01:53:52;12.60;99.90
8633;DHT22;4354;49.832;10.746;2023-09-08T01:56:19;13.50;99.90
8633;DHT22;4354;49.832;10.746;2023-09-08T01:58:46;12.30;99.90
8633;DHT22;4354;49.832;10.746;2023-09-08T02:01:13;12.20;99.90
8633;DHT22;4354;49.832;10.746;2023-09-08T02:03:40;12.20;99.90
8633;DHT22;4354;49.832;10.746;2023-09-08T02:06:06;12.10;99.90
8633;DHT22;4354;49.832;10.746;2023-09-08T02:08:33;12.10;99.90
8633;DHT22;4354;49.832;10.746;2023-09-08T02:11:00;13.30;99.90
8633;DHT22;4354;49.832;10.746;2023-09-08T02:13:27;13.10;99.90
8633;DHT22;4354;49.832;10.746;2023-09-08T02:15:54;12.10;99.90
8633;DHT22;4354;49.832;10.746;2023-09-08T02:18:21;12.50;99.90
8633;DHT22;4354;49.832;10.746;2023-09-08T02:20:48;12.00;99.90
8633;DHT22;4354;49.832;10.746;2023-09-08T02:23:14;12.00;99.90
8633;DHT22;4354;49.832;10.746;2023-09-08T02:25:41;11.90;99.90
8633;DHT22;4354;49.832;10.746;2023-09-08T02:28:08;11.80;99.90
8633;DHT22;4354;49.832;10.746;2023-09-08T02:30:35;11.80;99.90
8633;DHT22;4354;49.832;10.746;2023-09-08T02:33:02;12.00;99.90
8633;DHT22;4354;49.832;10.746;2023-09-08T02:35:29;11.70;99.90
8633;DHT22;4354;49.832;10.746;2023-09-08T02:37:57;11.70;99.90
8633;DHT22;4354;49.832;10.746;2023-09-08T02:40:23;11.70;99.90
8633;DHT22;4354;49.832;10.746;2023-09-08T02:42:50;11.70;99.90
8633;DHT22;4354;49.832;10.746;2023-09-08T02:45:17;11.60;99.90
8633;DHT22;4354;49.832;10.746;2023-09-08T02:47:44;12.00;99.90
8633;DHT22;4354;49.832;10.746;2023-09-08T02:50:11;11.50;99.90
8633;DHT22;4354;49.832;10.746;2023-09-08T02:52:37;11.80;99.90
8633;DHT22;4354;49.832;10.746;2023-09-08T02:55:04;11.40;99.90
8633;DHT22;4354;49.832;10.746;2023-09-08T02:57:31;11.40;99.90
8633;DHT22;4354;49.832;10.746;2023-09-08T02:59:58;11.40;99.90
8633;DHT22;4354;49.832;10.746;2023-09-08T03:02:25;11.30;99.90
8633;DHT22;4354;49.832;10.746;2023-09-08T03:04:53;11.30;99.90
8633;DHT22;4354;49.832;10.746;2023-09-08T03:07:19;11.30;99.90
8633;DHT22;4354;49.832;10.746;2023-09-08T03:09:46;12.10;99.90
8633;DHT22;4354;49.832;10.746;2023-09-08T03:12:13;12.00;99.90
8633;DHT22;4354;49.832;10.746;2023-09-08T03:14:40;11.30;99.90
8633;DHT22;4354;49.832;10.746;2023-09-08T03:17:07;11.30;99.90
8633;DHT22;4354;49.832;10.746;2023-09-08T03:19:34;11.40;99.90
8633;DHT22;4354;49.832;10.746;2023-09-08T03:22:01;11.40;99.90
8633;DHT22;4354;49.832;10.746;2023-09-08T03:24:28;11.50;99.90
8633;DHT22;4354;49.832;10.746;2023-09-08T03:26:55;11.60;99.90
8633;DHT22;4354;49.832;10.746;2023-09-08T03:29:22;11.60;99.90
8633;DHT22;4354;49.832;10.746;2023-09-08T03:31:49;11.60;99.90
8633;DHT22;4354;49.832;10.746;2023-09-08T03:34:16;11.70;99.90
8633;DHT22;4354;49.832;10.746;2023-09-08T03:36:44;11.60;99.90
8633;DHT22;4354;49.832;10.746;2023-09-08T03:39:11;12.30;99.90
8633;DHT22;4354;49.832;10.746;2023-09-08T03:41:38;12.00;99.90
8633;DHT22;4354;49.832;10.746;2023-09-08T03:44:05;11.60;99.90
8633;DHT22;4354;49.832;10.746;2023-09-08T03:46:32;11.60;99.90
8633;DHT22;4354;49.832;10.746;2023-09-08T03:48:59;11.50;99.90
8633;DHT22;4354;49.832;10.746;2023-09-08T03:51:28;11.50;99.90
8633;DHT22;4354;49.832;10.746;2023-09-08T03:53:55;11.50;99.90
8633;DHT22;4354;49.832;10.746;2023-09-08T03:56:21;11.30;99.90
8633;DHT22;4354;49.832;10.746;2023-09-08T03:58:49;11.20;99.90
8633;DHT22;4354;49.832;10.746;2023-09-08T04:01:15;11.20;99.90
8633;DHT22;4354;49.832;10.746;2023-09-08T04:03:42;11.10;99.90
8633;DHT22;4354;49.832;10.746;2023-09-08T04:06:10;11.10;99.90
8633;DHT22;4354;49.832;10.746;2023-09-08T04:08:38;11.00;99.90
8633;DHT22;4354;49.832;10.746;2023-09-08T04:11:04;11.10;99.90
8633;DHT22;4354;49.832;10.746;2023-09-08T04:13:31;11.20;99.90
8633;DHT22;4354;49.832;10.746;2023-09-08T04:15:59;11.20;99.90
8633;DHT22;4354;49.832;10.746;2023-09-08T04:18:26;12.50;99.90
8633;DHT22;4354;49.832;10.746;2023-09-08T04:20:53;11.20;99.90
8633;DHT22;4354;49.832;10.746;2023-09-08T04:23:20;11.10;99.90
8633;DHT22;4354;49.832;10.746;2023-09-08T04:25:47;11.20;99.90
8633;DHT22;4354;49.832;10.746;2023-09-08T04:33:38;11.30;99.90
8633;DHT22;4354;49.832;10.746;2023-09-08T04:36:05;11.20;99.90
8633;DHT22;4354;49.832;10.746;2023-09-08T04:38:32;11.20;99.90
8633;DHT22;4354;49.832;10.746;2023-09-08T04:40:59;11.20;99.90
8633;DHT22;4354;49.832;10.746;2023-09-08T04:43:26;11.20;99.90
8633;DHT22;4354;49.832;10.746;2023-09-08T04:45:53;11.20;99.90
8633;DHT22;4354;49.832;10.746;2023-09-08T04:48:19;11.20;99.90
8633;DHT22;4354;49.832;10.746;2023-09-08T04:50:46;11.10;99.90
8633;DHT22;4354;49.832;10.746;2023-09-08T04:53:14;11.10;99.90
8633;DHT22;4354;49.832;10.746;2023-09-08T04:55:41;11.10;99.90
8633;DHT22;4354;49.832;10.746;2023-09-08T04:58:08;11.10;99.90
8633;DHT22;4354;49.832;10.746;2023-09-08T05:00:37;11.10;99.90
8633;DHT22;4354;49.832;10.746;2023-09-08T05:03:05;11.10;99.90
8633;DHT22;4354;49.832;10.746;2023-09-08T05:05:33;11.00;99.90
8633;DHT22;4354;49.832;10.746;2023-09-08T05:08:00;11.00;99.90
8633;DHT22;4354;49.832;10.746;2023-09-08T05:10:27;10.90;99.90
8633;DHT22;4354;49.832;10.746;2023-09-08T05:12:54;10.90;99.90
8633;DHT22;4354;49.832;10.746;2023-09-08T05:15:20;11.10;99.90
8633;DHT22;4354;49.832;10.746;2023-09-08T05:17:48;11.10;99.90
8633;DHT22;4354;49.832;10.746;2023-09-08T05:20:15;11.00;99.90
8633;DHT22;4354;49.832;10.746;2023-09-08T05:22:42;11.20;99.90
8633;DHT22;4354;49.832;10.746;2023-09-08T05:25:09;11.30;99.90
8633;DHT22;4354;49.832;10.746;2023-09-08T05:27:36;11.40;99.90
8633;DHT22;4354;49.832;10.746;2023-09-08T05:30:04;11.40;99.90
8633;DHT22;4354;49.832;10.746;2023-09-08T05:32:31;11.50;99.90
8633;DHT22;4354;49.832;10.746;2023-09-08T05:34:58;11.60;99.90
8633;DHT22;4354;49.832;10.746;2023-09-08T05:37:25;11.70;99.90
8633;DHT22;4354;49.832;10.746;2023-09-08T05:39:52;11.70;99.90
8633;DHT22;4354;49.832;10.746;2023-09-08T05:42:19;11.80;99.90
8633;DHT22;4354;49.832;10.746;2023-09-08T05:44:46;11.80;99.90
8633;DHT22;4354;49.832;10.746;2023-09-08T05:47:14;11.90;99.90
8633;DHT22;4354;49.832;10.746;2023-09-08T05:49:41;12.00;99.90
8633;DHT22;4354;49.832;10.746;2023-09-08T05:52:09;12.10;99.90
8633;DHT22;4354;49.832;10.746;2023-09-08T05:54:35;12.20;99.90
8633;DHT22;4354;49.832;10.746;2023-09-08T05:57:02;12.20;99.90
8633;DHT22;4354;49.832;10.746;2023-09-08T05:59:29;12.30;99.90
8633;DHT22;4354;49.832;10.746;2023-09-08T06:01:56;12.30;98.20
8633;DHT22;4354;49.832;10.746;2023-09-08T06:04:23;12.50;95.90
8633;DHT22;4354;49.832;10.746;2023-09-08T06:06:50;12.50;98.50
8633;DHT22;4354;49.832;10.746;2023-09-08T06:09:17;12.60;97.70
8633;DHT22;4354;49.832;10.746;2023-09-08T06:11:44;12.70;99.90
8633;DHT22;4354;49.832;10.746;2023-09-08T06:14:12;12.90;99.70
8633;DHT22;4354;49.832;10.746;2023-09-08T06:16:39;12.90;95.40
8633;DHT22;4354;49.832;10.746;2023-09-08T06:19:06;13.00;95.50
8633;DHT22;4354;49.832;10.746;2023-09-08T06:21:33;13.10;91.60
8633;DHT22;4354;49.832;10.746;2023-09-08T06:24:00;13.20;88.90
8633;DHT22;4354;49.832;10.746;2023-09-08T06:26:27;13.20;88.80
8633;DHT22;4354;49.832;10.746;2023-09-08T06:28:54;13.40;88.10
8633;DHT22;4354;49.832;10.746;2023-09-08T06:31:20;13.40;86.00
8633;DHT22;4354;49.832;10.746;2023-09-08T06:33:47;13.60;83.70
8633;DHT22;4354;49.832;10.746;2023-09-08T06:36:19;13.70;79.20
8633;DHT22;4354;49.832;10.746;2023-09-08T06:38:45;13.80;79.70
8633;DHT22;4354;49.832;10.746;2023-09-08T06:41:13;13.90;73.40
8633;DHT22;4354;49.832;10.746;2023-09-08T06:43:40;14.00;71.10
8633;DHT22;4354;49.832;10.746;2023-09-08T06:46:06;14.10;64.40
8633;DHT22;4354;49.832;10.746;2023-09-08T06:48:33;14.20;63.90
8633;DHT22;4354;49.832;10.746;2023-09-08T06:51:01;14.40;67.90
8633;DHT22;4354;49.832;10.746;2023-09-08T06:53:28;14.50;60.60
8633;DHT22;4354;49.832;10.746;2023-09-08T06:55:55;14.60;60.50
8633;DHT22;4354;49.832;10.746;2023-09-08T06:58:22;14.70;59.10
8633;DHT22;4354;49.832;10.746;2023-09-08T07:00:49;14.80;52.40
8633;DHT22;4354;49.832;10.746;2023-09-08T07:03:17;15.00;49.20
8633;DHT22;4354;49.832;10.746;2023-09-08T07:05:44;15.10;39.00
8633;DHT22;4354;49.832;10.746;2023-09-08T07:08:12;15.30;27.40
8633;DHT22;4354;49.832;10.746;2023-09-08T07:10:39;15.30;11.20
8633;DHT22;4354;49.832;10.746;2023-09-08T07:13:06;15.50;19.40
8633;DHT22;4354;49.832;10.746;2023-09-08T07:15:33;15.70;5.80
8633;DHT22;4354;49.832;10.746;2023-09-08T07:18:00;15.90;1.00
8633;DHT22;4354;49.832;10.746;2023-09-08T07:20:29;16.10;1.00
8633;DHT22;4354;49.832;10.746;2023-09-08T07:22:56;16.20;1.00
8633;DHT22;4354;49.832;10.746;2023-09-08T07:25:24;16.50;1.00
8633;DHT22;4354;49.832;10.746;2023-09-08T07:27:50;16.90;1.00
8633;DHT22;4354;49.832;10.746;2023-09-08T07:30:20;17.60;1.00
8633;DHT22;4354;49.832;10.746;2023-09-08T07:32:47;18.90;99.90
8633;DHT22;4354;49.832;10.746;2023-09-08T07:35:14;20.90;1.00
8633;DHT22;4354;49.832;10.746;2023-09-08T07:37:43;22.90;1.00
8633;DHT22;4354;49.832;10.746;2023-09-08T07:40:10;25.10;99.90
8633;DHT22;4354;49.832;10.746;2023-09-08T07:42:37;26.70;99.90
8633;DHT22;4354;49.832;10.746;2023-09-08T07:45:05;27.70;99.90
8633;DHT22;4354;49.832;10.746;2023-09-08T07:47:32;27.60;99.90
8633;DHT22;4354;49.832;10.746;2023-09-08T07:50:24;27.80;99.90
8633;DHT22;4354;49.832;10.746;2023-09-08T07:52:53;27.20;99.90
8633;DHT22;4354;49.832;10.746;2023-09-08T07:55:21;27.00;99.90
8633;DHT22;4354;49.832;10.746;2023-09-08T07:57:50;27.00;99.90
8633;DHT22;4354;49.832;10.746;2023-09-08T08:00:17;27.70;99.90
8633;DHT22;4354;49.832;10.746;2023-09-08T08:02:48;28.90;99.90
8633;DHT22;4354;49.832;10.746;2023-09-08T08:05:16;30.20;99.90
8633;DHT22;4354;49.832;10.746;2023-09-08T08:07:44;31.00;94.00
8633;DHT22;4354;49.832;10.746;2023-09-08T08:10:12;30.90;78.60
8633;DHT22;4354;49.832;10.746;2023-09-08T08:12:39;31.00;71.90
8633;DHT22;4354;49.832;10.746;2023-09-08T08:15:07;31.00;58.40
8633;DHT22;4354;49.832;10.746;2023-09-08T08:17:38;32.50;54.00
8633;DHT22;4354;49.832;10.746;2023-09-08T08:20:06;33.50;39.40
8633;DHT22;4354;49.832;10.746;2023-09-08T08:22:36;34.10;24.70
8633;DHT22;4354;49.832;10.746;2023-09-08T08:25:04;35.50;15.60
8633;DHT22;4354;49.832;10.746;2023-09-08T08:27:31;36.00;7.00
8633;DHT22;4354;49.832;10.746;2023-09-08T08:29:58;36.10;1.00
8633;DHT22;4354;49.832;10.746;2023-09-08T08:32:28;36.90;1.00
8633;DHT22;4354;49.832;10.746;2023-09-08T08:34:55;37.70;1.00
8633;DHT22;4354;49.832;10.746;2023-09-08T08:37:22;38.20;1.00
8633;DHT22;4354;49.832;10.746;2023-09-08T08:39:49;38.50;1.00
8633;DHT22;4354;49.832;10.746;2023-09-08T08:42:16;38.80;1.00
8633;DHT22;4354;49.832;10.746;2023-09-08T08:44:44;39.60;1.00
8633;DHT22;4354;49.832;10.746;2023-09-08T08:47:13;39.60;1.00
8633;DHT22;4354;49.832;10.746;2023-09-08T08:49:46;40.60;1.00
8633;DHT22;4354;49.832;10.746;2023-09-08T08:52:14;40.40;1.00
8633;DHT22;4354;49.832;10.746;2023-09-08T08:54:41;40.30;1.00
8633;DHT22;4354;49.832;10.746;2023-09-08T08:57:09;40.00;1.00
8633;DHT22;4354;49.832;10.746;2023-09-08T08:59:37;40.30;1.00
8633;DHT22;4354;49.832;10.746;2023-09-08T09:02:05;41.20;1.00
8633;DHT22;4354;49.832;10.746;2023-09-08T09:04:32;40.70;1.00
8633;DHT22;4354;49.832;10.746;2023-09-08T09:06:59;40.50;1.00
8633;DHT22;4354;49.832;10.746;2023-09-08T09:09:26;39.90;1.00
8633;DHT22;4354;49.832;10.746;2023-09-08T09:11:55;40.50;1.00
8633;DHT22;4354;49.832;10.746;2023-09-08T09:14:22;41.20;1.00
8633;DHT22;4354;49.832;10.746;2023-09-08T09:16:50;41.50;1.00
8633;DHT22;4354;49.832;10.746;2023-09-08T09:19:19;42.10;1.00
8633;DHT22;4354;49.832;10.746;2023-09-08T09:21:52;41.00;1.00
8633;DHT22;4354;49.832;10.746;2023-09-08T09:24:38;42.20;1.00
8633;DHT22;4354;49.832;10.746;2023-09-08T09:27:08;42.50;1.00
8633;DHT22;4354;49.832;10.746;2023-09-08T09:29:50;43.00;1.00
8633;DHT22;4354;49.832;10.746;2023-09-08T09:32:23;43.60;1.00
8633;DHT22;4354;49.832;10.746;2023-09-08T09:34:52;42.70;1.00
8633;DHT22;4354;49.832;10.746;2023-09-08T09:37:23;42.30;1.00
8633;DHT22;4354;49.832;10.746;2023-09-08T09:39:51;42.30;1.00
8633;DHT22;4354;49.832;10.746;2023-09-08T09:42:19;41.70;1.00
8633;DHT22;4354;49.832;10.746;2023-09-08T09:44:48;41.70;1.00
8633;DHT22;4354;49.832;10.746;2023-09-08T09:47:16;42.80;1.00
8633;DHT22;4354;49.832;10.746;2023-09-08T09:49:44;42.70;1.00
8633;DHT22;4354;49.832;10.746;2023-09-08T09:52:11;41.90;1.00
8633;DHT22;4354;49.832;10.746;2023-09-08T09:54:43;42.00;1.00
8633;DHT22;4354;49.832;10.746;2023-09-08T09:57:13;42.20;1.00
8633;DHT22;4354;49.832;10.746;2023-09-08T09:59:41;41.60;1.00
8633;DHT22;4354;49.832;10.746;2023-09-08T10:02:13;41.60;1.00
8633;DHT22;4354;49.832;10.746;2023-09-08T10:04:50;42.70;1.00
8633;DHT22;4354;49.832;10.746;2023-09-08T10:07:18;43.20;1.00
8633;DHT22;4354;49.832;10.746;2023-09-08T10:09:46;43.00;1.00
8633;DHT22;4354;49.832;10.746;2023-09-08T10:12:14;43.60;1.00
8633;DHT22;4354;49.832;10.746;2023-09-08T10:14:42;43.70;1.00
8633;DHT22;4354;49.832;10.746;2023-09-08T10:17:15;44.10;1.00
8633;DHT22;4354;49.832;10.746;2023-09-08T10:19:45;43.50;1.00
8633;DHT22;4354;49.832;10.746;2023-09-08T10:22:20;43.20;1.00
8633;DHT22;4354;49.832;10.746;2023-09-08T10:24:50;43.10;1.00
8633;DHT22;4354;49.832;10.746;2023-09-08T10:27:17;42.00;1.00
8633;DHT22;4354;49.832;10.746;2023-09-08T10:29:48;42.60;1.00
8633;DHT22;4354;49.832;10.746;2023-09-08T10:32:15;42.80;1.00
8633;DHT22;4354;49.832;10.746;2023-09-08T10:34:43;42.60;1.00
8633;DHT22;4354;49.832;10.746;2023-09-08T10:37:26;43.60;1.00
8633;DHT22;4354;49.832;10.746;2023-09-08T10:39:59;43.00;1.00
8633;DHT22;4354;49.832;10.746;2023-09-08T10:42:43;43.00;1.00
8633;DHT22;4354;49.832;10.746;2023-09-08T10:45:19;42.20;1.00
8633;DHT22;4354;49.832;10.746;2023-09-08T10:50:17;42.50;1.00
8633;DHT22;4354;49.832;10.746;2023-09-08T10:52:44;42.80;1.00
8633;DHT22;4354;49.832;10.746;2023-09-08T10:55:12;42.60;1.00
8633;DHT22;4354;49.832;10.746;2023-09-08T10:57:44;43.30;1.00
8633;DHT22;4354;49.832;10.746;2023-09-08T11:00:17;42.30;1.00
8633;DHT22;4354;49.832;10.746;2023-09-08T11:02:50;41.90;1.00
8633;DHT22;4354;49.832;10.746;2023-09-08T11:05:17;41.90;1.00
8633;DHT22;4354;49.832;10.746;2023-09-08T11:07:47;41.20;1.00
8633;DHT22;4354;49.832;10.746;2023-09-08T11:10:16;40.70;1.00
8633;DHT22;4354;49.832;10.746;2023-09-08T11:12:43;40.50;1.00
8633;DHT22;4354;49.832;10.746;2023-09-08T11:15:10;40.10;1.00
8633;DHT22;4354;49.832;10.746;2023-09-08T11:17:38;39.80;1.00
8633;DHT22;4354;49.832;10.746;2023-09-08T11:20:09;39.90;1.00
8633;DHT22;4354;49.832;10.746;2023-09-08T11:22:38;39.70;1.00
8633;DHT22;4354;49.832;10.746;2023-09-08T11:25:09;39.60;1.00
8633;DHT22;4354;49.832;10.746;2023-09-08T11:27:40;39.20;1.00
8633;DHT22;4354;49.832;10.746;2023-09-08T11:30:08;39.30;1.00
8633;DHT22;4354;49.832;10.746;2023-09-08T11:32:35;38.10;1.00
8633;DHT22;4354;49.832;10.746;2023-09-08T11:35:06;38.20;1.00
8633;DHT22;4354;49.832;10.746;2023-09-08T11:37:37;38.00;1.00
8633;DHT22;4354;49.832;10.746;2023-09-08T11:40:12;37.60;1.00
8633;DHT22;4354;49.832;10.746;2023-09-08T11:42:41;37.90;1.00
8633;DHT22;4354;49.832;10.746;2023-09-08T11:45:15;37.60;1.00
8633;DHT22;4354;49.832;10.746;2023-09-08T11:47:45;36.90;1.00
8633;DHT22;4354;49.832;10.746;2023-09-08T11:50:12;36.40;1.00
8633;DHT22;4354;49.832;10.746;2023-09-08T11:52:49;35.50;1.00
8633;DHT22;4354;49.832;10.746;2023-09-08T11:55:17;35.20;1.00
8633;DHT22;4354;49.832;10.746;2023-09-08T11:57:51;34.60;1.00
8633;DHT22;4354;49.832;10.746;2023-09-08T12:00:22;33.30;1.00
8633;DHT22;4354;49.832;10.746;2023-09-08T12:02:50;33.70;1.00
8633;DHT22;4354;49.832;10.746;2023-09-08T12:05:25;33.80;1.00
8633;DHT22;4354;49.832;10.746;2023-09-08T12:07:54;34.10;1.00
8633;DHT22;4354;49.832;10.746;2023-09-08T12:10:22;34.40;1.00
8633;DHT22;4354;49.832;10.746;2023-09-08T12:12:52;34.40;1.00
8633;DHT22;4354;49.832;10.746;2023-09-08T12:15:47;34.60;1.00
8633;DHT22;4354;49.832;10.746;2023-09-08T12:18:14;34.10;1.00
8633;DHT22;4354;49.832;10.746;2023-09-08T12:20:44;33.70;1.00
8633;DHT22;4354;49.832;10.746;2023-09-08T12:23:22;33.60;1.00
8633;DHT22;4354;49.832;10.746;2023-09-08T12:25:51;33.70;1.00
8633;DHT22;4354;49.832;10.746;2023-09-08T12:28:20;33.20;1.00
8633;DHT22;4354;49.832;10.746;2023-09-08T12:30:50;32.90;1.00
8633;DHT22;4354;49.832;10.746;2023-09-08T12:33:17;32.70;1.00
8633;DHT22;4354;49.832;10.746;2023-09-08T12:35:47;32.40;1.00
8633;DHT22;4354;49.832;10.746;2023-09-08T12:38:20;32.20;1.00
8633;DHT22;4354;49.832;10.746;2023-09-08T12:40:46;32.40;1.00
8633;DHT22;4354;49.832;10.746;2023-09-08T12:43:13;32.50;1.00
8633;DHT22;4354;49.832;10.746;2023-09-08T12:45:57;32.60;1.00
8633;DHT22;4354;49.832;10.746;2023-09-08T12:48:24;32.20;1.00
8633;DHT22;4354;49.832;10.746;2023-09-08T12:50:51;32.30;1.00
8633;DHT22;4354;49.832;10.746;2023-09-08T12:53:18;32.20;1.00
8633;DHT22;4354;49.832;10.746;2023-09-08T12:55:46;32.10;1.00
8633;DHT22;4354;49.832;10.746;2023-09-08T12:58:13;31.70;1.00
8633;DHT22;4354;49.832;10.746;2023-09-08T13:00:40;31.20;1.00
8633;DHT22;4354;49.832;10.746;2023-09-08T13:03:07;31.40;1.00
8633;DHT22;4354;49.832;10.746;2023-09-08T13:05:34;31.50;1.00
8633;DHT22;4354;49.832;10.746;2023-09-08T13:08:02;31.20;1.00
8633;DHT22;4354;49.832;10.746;2023-09-08T13:10:29;31.00;1.00
8633;DHT22;4354;49.832;10.746;2023-09-08T13:12:55;30.90;1.00
8633;DHT22;4354;49.832;10.746;2023-09-08T13:15:23;31.00;1.00
8633;DHT22;4354;49.832;10.746;2023-09-08T13:17:50;31.00;1.00
8633;DHT22;4354;49.832;10.746;2023-09-08T13:20:18;31.00;1.00
8633;DHT22;4354;49.832;10.746;2023-09-08T13:22:45;30.90;1.00
8633;DHT22;4354;49.832;10.746;2023-09-08T13:25:11;30.70;1.00
8633;DHT22;4354;49.832;10.746;2023-09-08T13:27:41;30.70;1.00
8633;DHT22;4354;49.832;10.746;2023-09-08T13:30:13;30.60;1.00
8633;DHT22;4354;49.832;10.746;2023-09-08T13:32:40;30.50;1.00
8633;DHT22;4354;49.832;10.746;2023-09-08T13:35:07;30.50;1.00
8633;DHT22;4354;49.832;10.746;2023-09-08T13:37:34;30.50;1.00
8633;DHT22;4354;49.832;10.746;2023-09-08T13:40:02;30.60;1.00
8633;DHT22;4354;49.832;10.746;2023-09-08T13:42:31;30.50;1.00
8633;DHT22;4354;49.832;10.746;2023-09-08T13:44:58;30.40;1.00
8633;DHT22;4354;49.832;10.746;2023-09-08T13:47:26;30.30;1.00
8633;DHT22;4354;49.832;10.746;2023-09-08T13:49:54;30.10;1.00
8633;DHT22;4354;49.832;10.746;2023-09-08T13:52:24;30.10;1.00
8633;DHT22;4354;49.832;10.746;2023-09-08T13:54:57;30.10;1.00
8633;DHT22;4354;49.832;10.746;2023-09-08T13:57:26;30.10;1.00
8633;DHT22;4354;49.832;10.746;2023-09-08T13:59:55;30.00;1.00
8633;DHT22;4354;49.832;10.746;2023-09-08T14:02:24;29.80;1.00
8633;DHT22;4354;49.832;10.746;2023-09-08T14:04:54;29.50;1.00
8633;DHT22;4354;49.832;10.746;2023-09-08T14:07:27;29.30;1.00
8633;DHT22;4354;49.832;10.746;2023-09-08T14:10:05;29.20;1.00
8633;DHT22;4354;49.832;10.746;2023-09-08T14:12:37;29.20;1.00
8633;DHT22;4354;49.832;10.746;2023-09-08T14:15:04;29.20;1.00
8633;DHT22;4354;49.832;10.746;2023-09-08T14:17:31;29.10;1.00
8633;DHT22;4354;49.832;10.746;2023-09-08T14:19:58;29.10;1.00
8633;DHT22;4354;49.832;10.746;2023-09-08T14:22:25;29.10;1.00
8633;DHT22;4354;49.832;10.746;2023-09-08T14:24:53;29.10;1.00
8633;DHT22;4354;49.832;10.746;2023-09-08T14:27:20;29.00;1.00
8633;DHT22;4354;49.832;10.746;2023-09-08T14:29:47;29.00;1.00
8633;DHT22;4354;49.832;10.746;2023-09-08T14:32:14;29.00;1.00
8633;DHT22;4354;49.832;10.746;2023-09-08T14:34:41;28.90;1.00
8633;DHT22;4354;49.832;10.746;2023-09-08T14:37:07;28.80;1.00
8633;DHT22;4354;49.832;10.746;2023-09-08T14:39:37;28.70;1.00
8633;DHT22;4354;49.832;10.746;2023-09-08T14:42:04;28.60;1.00
8633;DHT22;4354;49.832;10.746;2023-09-08T14:44:32;28.60;1.00
8633;DHT22;4354;49.832;10.746;2023-09-08T14:46:59;28.60;1.00
8633;DHT22;4354;49.832;10.746;2023-09-08T14:49:26;28.50;1.00
8633;DHT22;4354;49.832;10.746;2023-09-08T14:51:53;28.50;1.00
8633;DHT22;4354;49.832;10.746;2023-09-08T14:54:20;28.50;1.00
8633;DHT22;4354;49.832;10.746;2023-09-08T14:56:46;28.40;1.00
8633;DHT22;4354;49.832;10.746;2023-09-08T14:59:13;28.40;1.00
8633;DHT22;4354;49.832;10.746;2023-09-08T15:01:40;28.40;1.00
8633;DHT22;4354;49.832;10.746;2023-09-08T15:04:10;28.40;1.00
8633;DHT22;4354;49.832;10.746;2023-09-08T15:06:36;28.30;1.00
8633;DHT22;4354;49.832;10.746;2023-09-08T15:09:03;28.30;1.00
8633;DHT22;4354;49.832;10.746;2023-09-08T15:11:30;28.30;1.00
8633;DHT22;4354;49.832;10.746;2023-09-08T15:13:57;28.30;1.00
8633;DHT22;4354;49.832;10.746;2023-09-08T15:16:24;28.20;1.00
8633;DHT22;4354;49.832;10.746;2023-09-08T15:18:51;28.10;1.00
8633;DHT22;4354;49.832;10.746;2023-09-08T15:21:18;28.10;1.00
8633;DHT22;4354;49.832;10.746;2023-09-08T15:23:50;28.00;1.00
8633;DHT22;4354;49.832;10.746;2023-09-08T15:26:17;28.00;1.00
8633;DHT22;4354;49.832;10.746;2023-09-08T15:28:44;27.90;1.00
8633;DHT22;4354;49.832;10.746;2023-09-08T15:31:11;27.90;1.00
8633;DHT22;4354;49.832;10.746;2023-09-08T15:33:42;27.80;1.00
8633;DHT22;4354;49.832;10.746;2023-09-08T15:36:09;27.80;1.00
8633;DHT22;4354;49.832;10.746;2023-09-08T15:38:35;27.70;1.00
8633;DHT22;4354;49.832;10.746;2023-09-08T15:43:41;27.60;1.00
8633;DHT22;4354;49.832;10.746;2023-09-08T15:46:08;27.60;1.00
8633;DHT22;4354;49.832;10.746;2023-09-08T15:48:36;27.50;1.00
8633;DHT22;4354;49.832;10.746;2023-09-08T15:51:03;27.50;1.00
8633;DHT22;4354;49.832;10.746;2023-09-08T15:53:30;27.50;1.00
8633;DHT22;4354;49.832;10.746;2023-09-08T15:55:58;27.40;1.00
8633;DHT22;4354;49.832;10.746;2023-09-08T15:58:25;27.30;1.00
8633;DHT22;4354;49.832;10.746;2023-09-08T16:00:52;27.20;1.00
8633;DHT22;4354;49.832;10.746;2023-09-08T16:03:19;27.20;1.00
8633;DHT22;4354;49.832;10.746;2023-09-08T16:05:46;27.20;1.00
8633;DHT22;4354;49.832;10.746;2023-09-08T16:08:13;27.30;1.00
8633;DHT22;4354;49.832;10.746;2023-09-08T16:10:40;27.20;1.00
8633;DHT22;4354;49.832;10.746;2023-09-08T16:13:07;27.20;1.00
8633;DHT22;4354;49.832;10.746;2023-09-08T16:15:34;27.10;1.00
8633;DHT22;4354;49.832;10.746;2023-09-08T16:18:01;27.00;1.00